Time;durP1;ratioP1;P1;durP2;ratioP2;P2;SDS_P1;SDS_P2;PMS_P1;PMS_P2;Temp;Humidity;BMP_temperature;BMP_pressure;BME280_temperature;BME280_humidity;BME280_pressure;Samples;Min_cycle;Max_cycle;Signal;HPM_P1;HPM_P2
2022/10/03 00:01:49;;;;;;;3.17;1.65;;;;;;;8.98;100.00;93179.41;5116278;27;20085;-69
2022/10/03 00:04:37;;;;;;;4.00;2.30;;;;;;;8.88;100.00;93174.69;5131886;27;20088;-69
2022/10/03 00:07:15;;;;;;;4.30;2.20;;;;;;;8.72;100.00;93164.84;5131719;27;20051;-70
2022/10/03 00:10:04;;;;;;;6.03;2.50;;;;;;;8.61;100.00;93156.03;5123574;27;20085;-70
2022/10/03 00:12:46;;;;;;;2.70;1.77;;;;;;;8.40;100.00;93153.44;5094471;28;20046;-69
2022/10/03 00:15:20;;;;;;;3.40;2.25;;;;;;;8.27;100.00;93150.88;5089213;28;20506;-69
2022/10/03 00:17:54;;;;;;;4.32;2.78;;;;;;;8.21;100.00;93147.34;5090244;28;20044;-69
2022/10/03 00:20:48;;;;;;;4.43;2.72;;;;;;;8.28;100.00;93139.63;5090656;28;20109;-69
2022/10/03 00:23:24;;;;;;;3.42;2.65;;;;;;;8.24;100.00;93123.91;5090058;28;20167;-69
2022/10/03 00:26:25;;;;;;;4.20;2.53;;;;;;;8.31;100.00;93125.66;5090304;28;20043;-69
2022/10/03 00:29:02;;;;;;;4.18;2.50;;;;;;;8.35;100.00;93114.06;5089843;28;20101;-70
2022/10/03 00:31:41;;;;;;;4.68;2.17;;;;;;;8.35;100.00;93101.25;5090168;28;20085;-70
2022/10/03 00:34:20;;;;;;;3.25;2.13;;;;;;;8.48;100.00;93115.81;5090046;28;20134;-70
2022/10/03 00:36:51;;;;;;;3.55;2.00;;;;;;;8.43;100.00;93119.00;5089675;28;20040;-70
2022/10/03 00:39:33;;;;;;;3.35;2.30;;;;;;;8.35;100.00;93109.72;5089447;28;20044;-69
2022/10/03 00:42:41;;;;;;;4.60;2.10;;;;;;;8.12;100.00;93110.13;5089673;28;20043;-69
2022/10/03 00:45:47;;;;;;;2.88;2.00;;;;;;;7.78;100.00;93106.75;5089665;28;20044;-69
2022/10/03 00:48:39;;;;;;;3.05;2.08;;;;;;;7.79;100.00;93108.31;5089358;28;20044;-69
2022/10/03 00:51:25;;;;;;;3.67;2.20;;;;;;;7.92;100.00;93105.00;5089810;28;20040;-69
2022/10/03 00:54:13;;;;;;;3.50;1.92;;;;;;;7.95;100.00;93107.94;5089582;28;20384;-70
2022/10/03 00:57:15;;;;;;;3.47;1.80;;;;;;;7.72;100.00;93119.31;5089122;28;20437;-70
2022/10/03 01:00:12;;;;;;;4.18;2.17;;;;;;;7.86;100.00;93104.78;5064752;28;20040;-70
2022/10/03 01:03:00;;;;;;;3.85;2.55;;;;;;;7.88;100.00;93104.59;5089130;28;20515;-70
2022/10/03 01:05:39;;;;;;;7.10;4.30;;;;;;;7.99;100.00;93108.34;5089603;28;20108;-70
2022/10/03 01:08:27;;;;;;;7.35;4.82;;;;;;;7.93;100.00;93102.25;5089094;28;20479;-70
2022/10/03 01:11:03;;;;;;;7.85;5.40;;;;;;;7.80;100.00;93109.88;5089226;28;20097;-70
2022/10/03 01:13:35;;;;;;;;;;;;;;;7.80;100.00;93104.78;5089705;28;20044;-70
2022/10/03 01:16:12;;;;;;;8.63;5.63;;;;;;;7.66;100.00;93097.09;5088939;28;19966;-70
2022/10/03 01:18:51;;;;;;;13.00;6.25;;;;;;;7.72;100.00;93098.06;5088565;28;20040;-71
2022/10/03 01:21:30;;;;;;;10.30;6.00;;;;;;;7.82;100.00;93090.03;5088543;28;20054;-70
2022/10/03 01:24:34;;;;;;;7.35;5.32;;;;;;;7.88;100.00;93089.25;5088595;28;20044;-69
2022/10/03 01:27:04;;;;;;;9.65;5.38;;;;;;;7.98;100.00;93092.22;5089017;28;20040;-69
2022/10/03 01:32:36;;;;;;;12.57;6.03;;;;;;;8.09;100.00;93088.28;5088050;28;20420;-69
2022/10/03 01:35:14;;;;;;;9.95;5.50;;;;;;;8.12;100.00;93094.78;5088871;28;20048;-69
2022/10/03 01:37:53;;;;;;;9.02;6.10;;;;;;;8.04;100.00;93094.97;5088992;28;20044;-69
2022/10/03 01:40:26;;;;;;;8.38;5.55;;;;;;;8.05;100.00;93099.88;5088588;28;20040;-69
2022/10/03 01:43:06;;;;;;;9.38;5.68;;;;;;;8.05;100.00;93086.31;5088980;28;20052;-69
2022/10/03 01:45:46;;;;;;;9.88;5.45;;;;;;;8.07;100.00;93079.22;5088662;28;21169;-69
2022/10/03 01:48:21;;;;;;;10.25;6.30;;;;;;;7.75;100.00;93085.72;5088603;28;20503;-69
2022/10/03 01:50:54;;;;;;;8.07;5.30;;;;;;;7.61;100.00;93084.91;5088561;28;20039;-69
2022/10/03 01:53:30;;;;;;;10.55;5.97;;;;;;;7.51;100.00;93087.03;5088841;28;20117;-69
2022/10/03 01:56:03;;;;;;;11.02;5.32;;;;;;;7.49;100.00;93082.13;5088511;28;20101;-70
2022/10/03 01:58:41;;;;;;;9.55;5.50;;;;;;;7.51;100.00;93081.13;5088764;28;20083;-69
2022/10/03 02:01:14;;;;;;;7.10;4.78;;;;;;;7.52;100.00;93078.41;5088791;28;20105;-69
2022/10/03 02:03:51;;;;;;;9.35;4.53;;;;;;;7.49;100.00;93066.00;5088807;28;20036;-69
2022/10/03 02:06:24;;;;;;;7.93;4.97;;;;;;;7.58;100.00;93075.06;5088469;28;20044;-69
2022/10/03 02:09:00;;;;;;;13.75;5.43;;;;;;;7.72;100.00;93075.88;5088711;28;20085;-69
2022/10/03 02:11:35;;;;;;;8.10;4.65;;;;;;;7.87;100.00;93085.13;5088573;28;20055;-69
2022/10/03 02:14:17;;;;;;;7.32;4.75;;;;;;;7.83;100.00;93076.28;5088620;28;20384;-69
2022/10/03 02:16:57;;;;;;;8.70;4.82;;;;;;;7.94;100.00;93074.88;5088266;28;20043;-69
2022/10/03 02:19:28;;;;;;;9.40;4.97;;;;;;;8.00;100.00;93076.66;5089746;28;20070;-70
2022/10/03 02:21:57;;;;;;;9.45;5.03;;;;;;;8.09;100.00;93079.81;5088478;28;20404;-70
2022/10/03 02:24:43;;;;;;;11.60;5.10;;;;;;;8.16;100.00;93078.06;5088542;28;20052;-69
2022/10/03 02:27:29;;;;;;;;;;;;;;;8.14;100.00;93075.69;5088986;28;20044;-69
2022/10/03 02:30:19;;;;;;;12.70;5.88;;;;;;;8.11;100.00;93068.38;5087991;28;19970;-69
2022/10/03 02:33:40;;;;;;;7.93;4.90;;;;;;;8.19;100.00;93082.00;5088409;28;20097;-69
2022/10/03 02:36:38;;;;;;;11.00;5.50;;;;;;;8.16;100.00;93076.25;5088054;28;20086;-69
2022/10/03 02:39:25;;;;;;;8.98;5.30;;;;;;;8.09;100.00;93055.03;5088054;28;20553;-70
2022/10/03 02:42:26;;;;;;;10.95;5.88;;;;;;;8.27;100.00;93079.22;5088091;28;20048;-69
2022/10/03 02:45:16;;;;;;;11.75;5.95;;;;;;;8.24;100.00;93071.94;5090691;28;20548;-69
2022/10/03 02:48:06;;;;;;;49.05;21.20;;;;;;;8.20;100.00;93073.31;5091823;28;20040;-70
2022/10/03 02:51:09;;;;;;;24.13;12.52;;;;;;;7.89;100.00;93062.69;5091714;28;20048;-69
2022/10/03 02:53:57;;;;;;;10.30;6.38;;;;;;;7.71;100.00;93068.38;5091640;28;20130;-69
2022/10/03 02:56:58;;;;;;;18.20;10.23;;;;;;;7.46;100.00;93061.28;5091827;28;20092;-69
2022/10/03 03:00:01;;;;;;;30.20;16.80;;;;;;;7.40;100.00;93059.50;5091820;28;20044;-69
2022/10/03 03:03:03;;;;;;;70.03;36.60;;;;;;;7.51;100.00;93061.50;5091461;28;20044;-69
2022/10/03 03:05:55;;;;;;;13.50;7.43;;;;;;;7.43;100.00;93059.91;5091631;28;20044;-70
2022/10/03 03:08:55;;;;;;;49.80;28.65;;;;;;;7.10;100.00;93024.84;5091337;28;20048;-70
2022/10/03 03:11:55;;;;;;;17.45;8.75;;;;;;;7.64;100.00;93057.38;5091232;28;20579;-69
2022/10/03 03:15:08;;;;;;;7.82;4.32;;;;;;;7.45;100.00;93057.94;5062848;28;20052;-71
2022/10/03 03:17:40;;;;;;;19.45;10.00;;;;;;;7.52;100.00;93055.38;5044787;28;20097;-70
2022/10/03 03:20:41;;;;;;;29.40;15.82;;;;;;;7.59;100.00;93055.41;5092967;28;20388;-70
2022/10/03 03:23:40;;;;;;;11.63;6.63;;;;;;;7.64;100.00;93053.03;5058190;28;20129;-70
2022/10/03 03:26:41;;;;;;;9.63;5.22;;;;;;;7.42;100.00;93050.66;5091153;28;20051;-70
2022/10/03 03:29:20;;;;;;;9.52;5.72;;;;;;;7.09;100.00;93059.03;5091271;28;20085;-70
2022/10/03 03:32:02;;;;;;;8.95;5.85;;;;;;;7.06;100.00;93044.06;5091229;28;20048;-70
2022/10/03 03:34:36;;;;;;;9.60;6.80;;;;;;;7.24;100.00;93065.72;5091075;28;20109;-70
2022/10/03 03:37:09;;;;;;;15.48;7.38;;;;;;;7.17;100.00;93053.72;5090815;28;20514;-71
2022/10/03 03:39:57;;;;;;;12.07;6.78;;;;;;;7.18;100.00;93065.53;5090437;28;20105;-70
2022/10/03 03:42:54;;;;;;;9.20;6.32;;;;;;;7.11;100.00;93062.16;5090977;28;20105;-71
2022/10/03 03:45:42;;;;;;;9.30;5.88;;;;;;;7.14;100.00;93064.34;5090937;28;20048;-70
2022/10/03 03:48:28;;;;;;;10.73;6.20;;;;;;;7.25;100.00;93054.53;5090859;28;20385;-70
2022/10/03 03:51:05;;;;;;;12.73;7.25;;;;;;;7.34;100.00;93055.94;5090562;28;20485;-70
2022/10/03 03:53:53;;;;;;;10.90;6.13;;;;;;;7.42;100.00;93044.75;5090400;28;20093;-71
2022/10/03 03:56:37;;;;;;;12.98;9.25;;;;;;;7.31;100.00;93052.00;5089933;28;20097;-70
2022/10/03 03:59:15;;;;;;;9.85;6.72;;;;;;;7.39;100.00;93052.78;5090675;28;20048;-70
2022/10/03 04:01:58;;;;;;;12.10;6.82;;;;;;;7.39;100.00;93052.78;5090485;28;20051;-70
2022/10/03 04:04:40;;;;;;;22.40;14.63;;;;;;;7.46;100.00;93048.50;5090515;28;20044;-70
2022/10/03 04:07:20;;;;;;;16.45;9.90;;;;;;;7.65;100.00;93048.72;5090640;28;20063;-70
2022/10/03 04:10:06;;;;;;;10.68;7.05;;;;;;;7.55;100.00;93052.44;5090460;28;20044;-70
2022/10/03 04:13:06;;;;;;;11.15;7.80;;;;;;;7.58;100.00;93036.72;5090470;28;20040;-70
2022/10/03 04:15:58;;;;;;;9.82;7.80;;;;;;;7.87;100.00;93049.34;5086071;28;20059;-70
2022/10/03 04:18:57;;;;;;;11.13;7.47;;;;;;;8.04;100.00;93046.38;5090292;28;20188;-70
2022/10/03 04:21:38;;;;;;;11.48;6.65;;;;;;;8.15;100.00;93040.66;5090029;28;20044;-70
2022/10/03 04:24:30;;;;;;;18.02;7.18;;;;;;;8.27;100.00;93046.75;5090170;28;20048;-70
2022/10/03 04:27:13;;;;;;;11.38;7.57;;;;;;;8.34;100.00;93049.28;5086551;28;20487;-70
2022/10/03 04:29:51;;;;;;;11.85;6.82;;;;;;;8.36;100.00;93031.97;5090177;28;20044;-70
2022/10/03 04:32:48;;;;;;;12.98;7.32;;;;;;;8.53;100.00;93040.00;5089549;28;20529;-70
2022/10/03 04:35:53;;;;;;;15.55;8.35;;;;;;;8.52;100.00;93046.13;5089899;28;20048;-71
2022/10/03 04:38:39;;;;;;;10.60;7.10;;;;;;;8.44;100.00;93048.88;4982536;28;20105;-71
2022/10/03 04:41:18;;;;;;;13.68;7.97;;;;;;;8.48;100.00;93031.34;5089955;28;20041;-70
2022/10/03 04:43:53;;;;;;;12.80;8.25;;;;;;;8.68;100.00;93044.91;5089795;28;20036;-70
2022/10/03 04:46:29;;;;;;;14.43;9.13;;;;;;;8.73;100.00;93046.88;5089512;28;20450;-70
2022/10/03 04:49:11;;;;;;;11.80;7.57;;;;;;;8.75;100.00;93046.66;5089440;28;20051;-70
2022/10/03 04:51:49;;;;;;;14.52;8.32;;;;;;;8.86;100.00;93051.16;5089254;28;20048;-71
2022/10/03 04:54:24;;;;;;;16.00;8.68;;;;;;;8.95;100.00;93046.59;5089430;28;20085;-70
2022/10/03 04:56:58;;;;;;;18.92;11.60;;;;;;;9.05;100.00;93052.06;5089318;28;20135;-70
2022/10/03 04:59:42;;;;;;;106.53;56.03;;;;;;;9.09;100.00;93057.56;5089603;28;20441;-70
2022/10/03 05:02:24;;;;;;;222.15;117.72;;;;;;;9.21;100.00;93055.94;5089296;28;20056;-70
2022/10/03 05:05:15;;;;;;;167.70;93.38;;;;;;;9.29;100.00;93057.47;5089493;28;20048;-70
2022/10/03 05:07:50;;;;;;;95.90;53.00;;;;;;;9.39;100.00;93051.13;5089551;28;20048;-69
2022/10/03 05:10:29;;;;;;;77.00;42.15;;;;;;;9.42;100.00;93051.50;5089204;28;20079;-70
2022/10/03 05:13:04;;;;;;;49.00;27.92;;;;;;;9.50;100.00;93055.59;5089359;28;20044;-70
2022/10/03 05:15:41;;;;;;;39.20;21.10;;;;;;;9.55;100.00;93053.19;5089153;28;20052;-70
2022/10/03 05:18:17;;;;;;;35.17;22.27;;;;;;;9.59;100.00;93046.66;5089265;28;20112;-71
2022/10/03 05:20:47;;;;;;;;;;;;;;;9.59;100.00;93059.47;5091488;28;20052;-70
2022/10/03 05:23:30;;;;;;;25.73;14.68;;;;;;;9.32;100.00;93054.53;5087318;28;20341;-70
2022/10/03 05:26:06;;;;;;;18.27;10.93;;;;;;;9.34;100.00;93057.66;5087854;28;20119;-70
2022/10/03 05:28:37;;;;;;;;;;;;;;;9.43;100.00;93049.69;5089254;28;20085;-70
2022/10/03 05:31:18;;;;;;;18.90;11.57;;;;;;;9.45;100.00;93045.19;5088845;28;19978;-70
2022/10/03 05:33:56;;;;;;;21.95;12.48;;;;;;;9.42;100.00;93041.25;5088904;28;20070;-70
2022/10/03 05:36:33;;;;;;;17.45;9.40;;;;;;;9.21;100.00;93038.00;5088476;28;20048;-70
2022/10/03 05:39:25;;;;;;;17.17;8.88;;;;;;;9.04;100.00;93037.69;5088923;28;20093;-70
2022/10/03 05:41:55;;;;;;;14.35;8.88;;;;;;;9.14;100.00;93044.94;5088771;28;20066;-70
2022/10/03 05:44:33;;;;;;;13.80;8.18;;;;;;;9.02;100.00;93037.09;5088926;28;20066;-70
2022/10/03 05:47:43;;;;;;;14.98;8.30;;;;;;;9.21;100.00;93032.06;5088189;28;20055;-70
2022/10/03 05:50:14;;;;;;;15.57;8.98;;;;;;;9.28;100.00;93032.03;5088154;28;20062;-70
2022/10/03 05:52:58;;;;;;;19.23;9.55;;;;;;;9.45;100.00;93034.91;5088423;28;20052;-70
2022/10/03 05:55:36;;;;;;;18.25;9.55;;;;;;;9.65;100.00;93045.03;5088690;28;20044;-70
2022/10/03 05:58:25;;;;;;;21.60;11.32;;;;;;;9.80;100.00;93055.00;5088487;28;20109;-70
2022/10/03 06:01:08;;;;;;;18.13;10.25;;;;;;;9.90;100.00;93059.66;5102196;28;20104;-70
2022/10/03 06:04:00;;;;;;;19.77;9.65;;;;;;;9.87;100.00;93058.28;5103643;28;20903;-70
2022/10/03 06:06:39;;;;;;;19.60;9.70;;;;;;;9.86;100.00;93058.53;5129817;28;20044;-70
2022/10/03 06:09:43;;;;;;;20.27;10.98;;;;;;;9.57;100.00;93056.34;5129873;28;20047;-70
2022/10/03 06:12:14;;;;;;;18.30;10.48;;;;;;;9.57;100.00;93055.53;5129727;28;20039;-70
2022/10/03 06:15:14;;;;;;;18.17;11.57;;;;;;;9.50;100.00;93060.72;5129726;28;20092;-70
2022/10/03 06:18:01;;;;;;;17.17;10.98;;;;;;;9.47;100.00;93063.69;5129661;27;20186;-70
2022/10/03 06:21:04;;;;;;;20.30;11.32;;;;;;;9.43;100.00;93067.66;5119194;27;20449;-70
2022/10/03 06:23:58;;;;;;;20.13;11.25;;;;;;;9.36;100.00;93073.59;5134077;27;20082;-70
2022/10/03 06:27:09;;;;;;;16.63;9.55;;;;;;;9.19;100.00;93072.50;5133873;27;20436;-70
2022/10/03 06:30:10;;;;;;;19.45;11.75;;;;;;;9.17;100.00;93070.13;5133139;27;20585;-70
2022/10/03 06:33:18;;;;;;;19.58;11.80;;;;;;;9.34;100.00;93064.53;5133402;27;20050;-70
2022/10/03 06:36:39;;;;;;;20.83;12.05;;;;;;;9.61;100.00;93056.72;5133347;27;20460;-70
2022/10/03 06:39:51;;;;;;;35.30;20.45;;;;;;;9.94;100.00;93065.97;5133148;27;20506;-71
2022/10/03 06:43:06;;;;;;;31.42;17.42;;;;;;;10.07;100.00;93075.34;5117207;27;20047;-70
2022/10/03 06:46:12;;;;;;;27.23;13.48;;;;;;;9.94;100.00;93053.13;5096124;27;20096;-70
2022/10/03 06:49:15;;;;;;;22.42;12.70;;;;;;;10.23;100.00;93080.94;5080014;27;20099;-70
2022/10/03 06:51:59;;;;;;;25.15;12.63;;;;;;;10.28;100.00;93078.53;5133356;27;20116;-70
2022/10/03 06:55:04;;;;;;;22.48;12.50;;;;;;;10.34;100.00;93090.53;5133232;27;20095;-70
2022/10/03 06:58:01;;;;;;;21.35;12.35;;;;;;;10.28;100.00;93091.38;5115404;27;20043;-70
2022/10/03 07:00:42;;;;;;;19.17;12.55;;;;;;;10.21;100.00;93076.00;5129114;27;20043;-70
2022/10/03 07:03:42;;;;;;;20.75;12.23;;;;;;;10.33;100.00;93090.72;5133156;27;20104;-70
2022/10/03 07:06:23;;;;;;;18.70;10.32;;;;;;;10.26;100.00;93090.78;5090535;27;20065;-70
2022/10/03 07:09:43;;;;;;;17.02;10.25;;;;;;;10.09;100.00;93096.44;5132912;27;20051;-70
2022/10/03 07:12:46;;;;;;;20.23;9.75;;;;;;;10.10;100.00;93103.13;5132795;27;20470;-70
2022/10/03 07:15:45;;;;;;;19.77;12.68;;;;;;;10.22;100.00;93105.81;5132720;27;20039;-70
2022/10/03 07:18:43;;;;;;;18.73;11.73;;;;;;;10.39;100.00;93118.94;5132852;27;20055;-70
2022/10/03 07:21:54;;;;;;;21.00;12.98;;;;;;;10.47;100.00;93115.34;5104294;27;20036;-70
2022/10/03 07:24:45;;;;;;;20.27;11.85;;;;;;;10.58;100.00;93133.59;5132541;27;20044;-70
2022/10/03 07:27:37;;;;;;;18.13;10.77;;;;;;;10.73;100.00;93141.75;5132561;27;20096;-70
2022/10/03 07:30:09;;;;;;;16.55;10.43;;;;;;;10.82;100.00;93139.72;5131475;27;20047;-69
2022/10/03 07:33:11;;;;;;;16.55;10.07;;;;;;;10.88;100.00;93138.84;5132055;27;20498;-70
2022/10/03 07:39:26;;;;;;;10.60;6.63;;;;;;;10.69;100.00;93131.13;5132249;27;20062;-70
2022/10/03 07:42:08;;;;;;;9.43;6.03;;;;;;;10.76;100.00;93168.81;5048482;28;20091;-70
2022/10/03 07:45:06;;;;;;;9.75;6.05;;;;;;;10.63;100.00;93175.66;5048563;28;20588;-70
2022/10/03 07:48:01;;;;;;;7.35;4.95;;;;;;;10.56;100.00;93168.00;5120809;27;20086;-70
2022/10/03 07:50:56;;;;;;;13.43;5.50;;;;;;;10.46;100.00;93182.31;5110524;27;20054;-70
2022/10/03 07:54:04;;;;;;;8.38;5.25;;;;;;;10.43;100.00;93181.72;5122595;27;20101;-70
2022/10/03 07:56:50;;;;;;;9.20;5.90;;;;;;;10.47;100.00;93176.19;5125854;27;20564;-70
2022/10/03 07:59:42;;;;;;;8.27;4.60;;;;;;;10.45;100.00;93173.03;5131691;27;20544;-70
2022/10/03 08:02:38;;;;;;;7.35;4.35;;;;;;;10.53;100.00;93168.44;5131494;27;20507;-70
2022/10/03 08:05:16;;;;;;;;;;;;;;;10.66;100.00;93177.00;5131738;27;20498;-70
2022/10/03 08:08:19;;;;;;;10.25;6.68;;;;;;;10.65;100.00;93178.00;5132155;27;20010;-70
2022/10/03 08:11:19;;;;;;;15.88;8.70;;;;;;;10.70;100.00;93178.16;5117436;27;20043;-70
2022/10/03 08:14:08;;;;;;;21.20;10.73;;;;;;;10.84;100.00;93183.97;5131297;27;20050;-70
2022/10/03 08:17:09;;;;;;;16.95;10.30;;;;;;;10.91;100.00;93184.69;5131436;27;20524;-70
2022/10/03 08:19:57;;;;;;;12.82;7.57;;;;;;;11.01;100.00;93184.19;5124089;27;20051;-70
2022/10/03 08:22:40;;;;;;;12.63;6.57;;;;;;;11.01;100.00;93183.44;5127435;27;20559;-70
2022/10/03 08:25:25;;;;;;;11.88;6.57;;;;;;;11.01;100.00;93186.78;5131424;27;20043;-70
2022/10/03 08:28:29;;;;;;;8.63;5.60;;;;;;;10.92;100.00;93183.69;5131372;27;20126;-70
2022/10/03 08:31:23;;;;;;;8.23;5.15;;;;;;;10.93;100.00;93198.13;5088698;27;21046;-70
2022/10/03 08:34:24;;;;;;;7.43;5.22;;;;;;;10.98;100.00;93184.66;5131348;27;20050;-70
2022/10/03 08:37:25;;;;;;;11.80;6.25;;;;;;;11.08;100.00;93192.63;5131233;27;20055;-70
2022/10/03 08:40:29;;;;;;;8.27;5.68;;;;;;;11.16;100.00;93193.38;5131301;27;20092;-70
2022/10/03 08:43:32;;;;;;;10.38;6.20;;;;;;;11.20;100.00;93191.94;5130473;27;20051;-70
2022/10/03 08:46:11;;;;;;;13.38;7.00;;;;;;;11.33;100.00;93199.50;5130663;27;20047;-70
2022/10/03 08:49:24;;;;;;;13.70;7.45;;;;;;;11.45;100.00;93193.66;5130859;27;20096;-70
2022/10/03 08:52:30;;;;;;;15.00;12.35;;;;;;;11.59;100.00;93199.44;5123604;27;20190;-71
2022/10/03 08:55:27;;;;;;;11.80;8.35;;;;;;;11.67;100.00;93199.13;5079465;27;20042;-70
2022/10/03 08:58:18;;;;;;;14.48;10.35;;;;;;;11.79;100.00;93193.28;5130972;27;20123;-70
2022/10/03 09:01:11;;;;;;;15.02;10.13;;;;;;;11.81;100.00;93189.47;5130625;27;20444;-70
2022/10/03 09:04:08;;;;;;;17.75;11.00;;;;;;;11.99;100.00;93201.50;5130594;27;20104;-70
2022/10/03 09:06:59;;;;;;;15.05;10.30;;;;;;;12.09;100.00;93205.38;5127989;27;20131;-70
2022/10/03 09:09:55;;;;;;;13.95;8.25;;;;;;;12.21;100.00;93208.78;5130763;27;20047;-70
2022/10/03 09:12:34;;;;;;;12.65;7.88;;;;;;;12.29;100.00;93210.25;5130652;27;20088;-70
2022/10/03 09:15:53;;;;;;;15.15;8.43;;;;;;;12.36;100.00;93202.44;5130219;27;20525;-70
2022/10/03 09:18:48;;;;;;;14.70;7.78;;;;;;;12.50;100.00;93221.06;5130328;27;20411;-70
2022/10/03 09:21:40;;;;;;;19.08;8.88;;;;;;;12.59;100.00;93219.72;5103285;27;20043;-70
2022/10/03 09:24:29;;;;;;;15.07;8.52;;;;;;;12.68;100.00;93208.09;5130333;27;20831;-70
2022/10/03 09:27:31;;;;;;;18.05;9.90;;;;;;;12.77;100.00;93211.13;5124474;27;20047;-70
2022/10/03 09:30:09;;;;;;;19.13;11.32;;;;;;;12.86;100.00;93221.13;5109528;28;20051;-70
2022/10/03 09:33:38;;;;;;;22.33;12.63;;;;;;;12.95;100.00;93223.16;5097489;28;20563;-70
2022/10/03 09:36:27;;;;;;;15.82;9.45;;;;;;;13.01;100.00;93228.41;5017059;28;20051;-70
2022/10/03 09:39:21;;;;;;;19.70;8.65;;;;;;;13.04;100.00;93223.59;5098837;28;20048;-70
2022/10/03 09:42:26;;;;;;;10.65;6.53;;;;;;;13.15;100.00;93224.59;5111412;28;20498;-70
2022/10/03 09:45:35;;;;;;;13.80;6.43;;;;;;;13.19;100.00;93225.72;5123358;28;20051;-70
2022/10/03 09:48:34;;;;;;;11.70;6.22;;;;;;;13.26;100.00;93228.19;5130020;28;20549;-70
2022/10/03 09:51:40;;;;;;;14.30;6.97;;;;;;;13.37;100.00;93224.00;5130057;28;20136;-69
2022/10/03 09:54:44;;;;;;;14.25;7.28;;;;;;;13.54;100.00;93225.94;5124629;27;20510;-69
2022/10/03 09:57:41;;;;;;;12.30;6.93;;;;;;;13.68;100.00;93224.69;5129600;27;20091;-69
2022/10/03 10:00:16;;;;;;;9.65;5.60;;;;;;;13.85;100.00;93224.72;5109227;27;20075;-69
2022/10/03 10:03:12;;;;;;;10.27;5.90;;;;;;;14.03;100.00;93230.75;5134100;27;20051;-70
2022/10/03 10:06:15;;;;;;;9.57;5.47;;;;;;;14.19;100.00;93225.84;5134058;27;20054;-70
2022/10/03 10:09:17;;;;;;;8.30;3.53;;;;;;;14.18;100.00;93219.13;5134151;27;20103;-69
2022/10/03 10:12:07;;;;;;;7.30;3.72;;;;;;;14.09;100.00;93221.28;5133878;27;20088;-69
2022/10/03 10:15:05;;;;;;;6.13;3.28;;;;;;;13.90;100.00;93230.00;5134026;27;20096;-69
2022/10/03 10:18:10;;;;;;;6.65;4.00;;;;;;;13.95;100.00;93229.31;5061388;27;20455;-69
2022/10/03 10:21:20;;;;;;;5.20;3.22;;;;;;;13.49;100.00;93237.75;5119378;27;20429;-70
2022/10/03 10:23:58;;;;;;;5.18;3.13;;;;;;;13.40;100.00;93231.31;5133662;27;20051;-70
2022/10/03 10:27:02;;;;;;;7.57;3.88;;;;;;;13.28;100.00;93220.22;5107766;27;20092;-70
2022/10/03 10:29:48;;;;;;;5.63;3.15;;;;;;;13.19;100.00;93219.78;5133765;27;20043;-69
2022/10/03 10:33:00;;;;;;;5.68;3.15;;;;;;;13.03;100.00;93221.22;5118691;27;20461;-70
2022/10/03 10:36:05;;;;;;;3.28;2.20;;;;;;;13.05;100.00;93232.88;5073061;28;20108;-70
2022/10/03 10:39:23;;;;;;;2.65;1.95;;;;;;;12.87;100.00;93238.94;5110455;28;20094;-70
2022/10/03 10:42:19;;;;;;;3.00;1.80;;;;;;;12.83;100.00;93237.81;5119447;27;20039;-70
2022/10/03 10:45:15;;;;;;;2.58;1.90;;;;;;;12.71;100.00;93235.22;5133365;27;20494;-70
2022/10/03 10:48:08;;;;;;;2.85;1.98;;;;;;;12.90;100.00;93230.75;5096769;27;20441;-70
2022/10/03 10:51:18;;;;;;;2.20;1.58;;;;;;;12.92;100.00;93243.44;5133175;27;20108;-70
2022/10/03 10:54:31;;;;;;;4.07;1.77;;;;;;;13.04;100.00;93235.69;5103259;27;20092;-70
2022/10/03 10:57:09;;;;;;;4.75;1.92;;;;;;;12.83;100.00;93238.59;5131849;27;20051;-70
2022/10/03 11:00:08;;;;;;;2.45;1.55;;;;;;;12.91;100.00;93242.63;5122171;27;20047;-70
2022/10/03 11:03:08;;;;;;;3.42;1.98;;;;;;;13.12;100.00;93243.09;5119725;27;20094;-70
2022/10/03 11:06:08;;;;;;;2.08;1.58;;;;;;;13.09;100.00;93244.34;5132629;27;20396;-70
2022/10/03 11:08:55;;;;;;;3.00;2.25;;;;;;;13.23;100.00;93241.53;5098147;27;20039;-70
2022/10/03 11:11:57;;;;;;;3.45;1.98;;;;;;;13.43;100.00;93243.75;5132996;27;20043;-70
2022/10/03 11:15:04;;;;;;;3.45;2.40;;;;;;;13.47;100.00;93241.56;5117534;27;20043;-70
2022/10/03 11:18:08;;;;;;;3.38;2.67;;;;;;;13.56;100.00;93239.41;5107227;27;20047;-70
2022/10/03 11:21:12;;;;;;;3.78;2.60;;;;;;;13.65;100.00;93235.44;5112662;27;20055;-70
2022/10/03 11:24:22;;;;;;;3.10;2.50;;;;;;;13.73;100.00;93242.84;5104045;28;20159;-70
2022/10/03 11:27:32;;;;;;;2.60;2.25;;;;;;;13.54;100.00;93239.63;5091296;28;20044;-70
2022/10/03 11:30:29;;;;;;;3.10;2.47;;;;;;;13.46;100.00;93245.09;5094817;28;20505;-70
2022/10/03 11:33:39;;;;;;;3.38;2.55;;;;;;;13.42;100.00;93238.84;5106448;28;20089;-70
2022/10/03 11:36:42;;;;;;;4.15;2.60;;;;;;;13.44;100.00;93235.03;5097667;28;20060;-70
2022/10/03 11:39:19;;;;;;;3.33;2.60;;;;;;;13.51;100.00;93237.50;5106539;27;20043;-70
2022/10/03 11:41:51;;;;;;;4.20;2.58;;;;;;;13.62;100.00;93249.59;5133365;27;20058;-70
2022/10/03 11:44:26;;;;;;;4.82;3.20;;;;;;;13.63;100.00;93243.44;5132239;27;20043;-70
2022/10/03 11:47:12;;;;;;;4.35;3.03;;;;;;;13.74;100.00;93247.00;5131962;27;20078;-70
2022/10/03 11:50:00;;;;;;;3.58;2.30;;;;;;;13.74;100.00;93241.84;5132105;27;20100;-70
2022/10/03 11:52:33;;;;;;;3.42;2.60;;;;;;;13.47;100.00;93213.16;5132189;27;20039;-70
2022/10/03 11:55:16;;;;;;;3.17;2.40;;;;;;;13.42;100.00;93236.25;5104096;27;20052;-70
2022/10/03 11:57:45;;;;;;;3.63;2.80;;;;;;;13.36;100.00;93225.03;5130263;27;20051;-70
2022/10/03 12:00:16;;;;;;;5.53;2.80;;;;;;;13.38;100.00;93222.22;5132115;27;20039;-70
2022/10/03 12:02:59;;;;;;;3.75;2.80;;;;;;;13.60;100.00;93223.22;5131525;27;20096;-70
2022/10/03 12:05:42;;;;;;;2.90;2.60;;;;;;;13.48;100.00;93227.63;5131568;27;20130;-70
2022/10/03 12:11:14;;;;;;;4.10;3.05;;;;;;;13.51;100.00;93231.56;5131630;27;20140;-70
2022/10/03 12:14:00;;;;;;;6.00;3.47;;;;;;;13.61;100.00;93226.59;5131545;27;20051;-70
2022/10/03 12:16:30;;;;;;;4.45;2.90;;;;;;;13.66;100.00;93229.25;5130890;27;20035;-70
2022/10/03 12:19:07;;;;;;;4.07;3.38;;;;;;;13.58;100.00;93235.59;5129440;27;20120;-70
2022/10/03 12:21:51;;;;;;;3.90;2.95;;;;;;;13.55;100.00;93230.06;5120862;27;20039;-70
2022/10/03 12:24:25;;;;;;;4.18;3.35;;;;;;;13.40;100.00;93221.00;5131296;27;20035;-70
2022/10/03 12:26:59;;;;;;;3.40;2.90;;;;;;;13.24;100.00;93217.28;5131615;27;20410;-70
2022/10/03 12:29:29;;;;;;;4.13;3.50;;;;;;;13.34;100.00;93212.34;5131153;27;20039;-70
2022/10/03 12:32:21;;;;;;;3.65;3.10;;;;;;;13.52;100.00;93210.66;5129835;27;20134;-70
2022/10/03 12:34:57;;;;;;;5.35;3.53;;;;;;;13.70;100.00;93217.47;5102870;27;20043;-70
2022/10/03 12:37:36;;;;;;;4.88;3.53;;;;;;;13.93;100.00;93209.91;5131114;27;20051;-70
2022/10/03 12:40:11;;;;;;;4.78;3.40;;;;;;;14.11;100.00;93209.72;5131664;27;20075;-70
2022/10/03 12:42:45;;;;;;;3.53;3.05;;;;;;;14.26;96.78;93214.34;5130598;27;20043;-70
2022/10/03 12:45:23;;;;;;;3.92;3.28;;;;;;;14.31;96.43;93213.69;5131164;27;20047;-70
2022/10/03 12:48:01;;;;;;;4.57;3.35;;;;;;;14.42;96.08;93206.88;5130805;27;20449;-70
2022/10/03 12:50:39;;;;;;;3.58;2.95;;;;;;;14.63;94.08;93202.81;5126676;27;20229;-70
2022/10/03 12:53:29;;;;;;;4.13;3.72;;;;;;;14.69;89.91;93209.63;5111627;27;20096;-70
2022/10/03 12:56:05;;;;;;;4.68;4.03;;;;;;;14.88;91.69;93199.09;5131024;27;20051;-70
2022/10/03 12:58:45;;;;;;;4.10;3.70;;;;;;;15.00;90.06;93195.63;5130753;27;20129;-70
2022/10/03 13:01:21;;;;;;;3.88;3.42;;;;;;;14.79;85.07;93210.84;5130975;27;20131;-71
2022/10/03 13:03:54;;;;;;;3.83;3.42;;;;;;;14.56;85.80;93210.75;5130492;27;20395;-70
2022/10/03 13:06:36;;;;;;;4.20;3.78;;;;;;;14.57;90.85;93204.53;5130687;27;20472;-70
2022/10/03 13:09:20;;;;;;;5.97;4.32;;;;;;;14.66;90.81;93201.56;5130872;27;20080;-70
2022/10/03 13:11:58;;;;;;;4.72;3.58;;;;;;;14.57;90.24;93196.00;5130618;27;20047;-70
2022/10/03 13:14:44;;;;;;;5.72;3.70;;;;;;;14.73;89.88;93209.97;5130374;27;20467;-70